sensor_id;sensor_type;location;lat;lon;timestamp;P1;durP1;ratioP1;P2;durP2;ratioP2
55368;SDS011;41247;49.736;8.752;2023-02-28T00:00:38;5.72;;;3.03;;
55368;SDS011;41247;49.736;8.752;2023-02-28T00:04:18;8.73;;;3.20;;
55368;SDS011;41247;49.736;8.752;2023-02-28T00:07:59;6.22;;;3.17;;
55368;SDS011;41247;49.736;8.752;2023-02-28T00:11:39;5.90;;;3.60;;
55368;SDS011;41247;49.736;8.752;2023-02-28T00:15:20;6.97;;;3.60;;
55368;SDS011;41247;49.736;8.752;2023-02-28T00:19:01;6.10;;;3.80;;
55368;SDS011;41247;49.736;8.752;2023-02-28T00:22:43;5.90;;;3.90;;
55368;SDS011;41247;49.736;8.752;2023-02-28T00:26:26;6.13;;;3.58;;
55368;SDS011;41247;49.736;8.752;2023-02-28T00:30:07;7.38;;;3.92;;
55368;SDS011;41247;49.736;8.752;2023-02-28T00:33:52;6.88;;;3.85;;
55368;SDS011;41247;49.736;8.752;2023-02-28T00:37:33;8.25;;;4.65;;
55368;SDS011;41247;49.736;8.752;2023-02-28T00:41:13;8.40;;;4.40;;
55368;SDS011;41247;49.736;8.752;2023-02-28T00:44:54;7.65;;;3.78;;
55368;SDS011;41247;49.736;8.752;2023-02-28T00:48:35;6.65;;;3.92;;
55368;SDS011;41247;49.736;8.752;2023-02-28T00:52:16;9.48;;;5.20;;
55368;SDS011;41247;49.736;8.752;2023-02-28T00:55:56;8.18;;;4.18;;
55368;SDS011;41247;49.736;8.752;2023-02-28T00:59:37;8.57;;;4.68;;
55368;SDS011;41247;49.736;8.752;2023-02-28T01:03:18;7.63;;;4.45;;
55368;SDS011;41247;49.736;8.752;2023-02-28T01:06:59;8.80;;;4.72;;
55368;SDS011;41247;49.736;8.752;2023-02-28T01:10:40;6.88;;;4.68;;
55368;SDS011;41247;49.736;8.752;2023-02-28T01:14:21;7.25;;;4.80;;
55368;SDS011;41247;49.736;8.752;2023-02-28T01:18:02;6.82;;;4.38;;
55368;SDS011;41247;49.736;8.752;2023-02-28T01:21:44;7.93;;;4.55;;
55368;SDS011;41247;49.736;8.752;2023-02-28T01:25:24;11.15;;;5.25;;
55368;SDS011;41247;49.736;8.752;2023-02-28T01:29:05;9.48;;;5.10;;
55368;SDS011;41247;49.736;8.752;2023-02-28T01:32:46;7.72;;;4.88;;
55368;SDS011;41247;49.736;8.752;2023-02-28T01:36:26;7.70;;;4.80;;
55368;SDS011;41247;49.736;8.752;2023-02-28T01:40:07;8.43;;;5.43;;
55368;SDS011;41247;49.736;8.752;2023-02-28T01:47:31;8.00;;;5.50;;
55368;SDS011;41247;49.736;8.752;2023-02-28T01:51:50;7.95;;;5.30;;
55368;SDS011;41247;49.736;8.752;2023-02-28T01:55:30;8.07;;;5.32;;
55368;SDS011;41247;49.736;8.752;2023-02-28T01:59:12;8.43;;;5.10;;
55368;SDS011;41247;49.736;8.752;2023-02-28T02:07:06;9.10;;;5.88;;
55368;SDS011;41247;49.736;8.752;2023-02-28T02:10:54;10.95;;;5.93;;
55368;SDS011;41247;49.736;8.752;2023-02-28T02:14:58;7.85;;;5.20;;
55368;SDS011;41247;49.736;8.752;2023-02-28T02:18:54;8.00;;;5.32;;
55368;SDS011;41247;49.736;8.752;2023-02-28T02:27:20;11.60;;;6.03;;
55368;SDS011;41247;49.736;8.752;2023-02-28T02:36:00;8.93;;;5.75;;
55368;SDS011;41247;49.736;8.752;2023-02-28T02:40:07;11.50;;;5.90;;
55368;SDS011;41247;49.736;8.752;2023-02-28T02:47:55;13.10;;;5.57;;
55368;SDS011;41247;49.736;8.752;2023-02-28T02:51:38;8.82;;;5.57;;
55368;SDS011;41247;49.736;8.752;2023-02-28T02:55:21;12.18;;;6.25;;
55368;SDS011;41247;49.736;8.752;2023-02-28T02:59:04;10.57;;;6.18;;
55368;SDS011;41247;49.736;8.752;2023-02-28T03:02:49;9.52;;;5.95;;
55368;SDS011;41247;49.736;8.752;2023-02-28T03:10:36;10.68;;;6.07;;
55368;SDS011;41247;49.736;8.752;2023-02-28T03:14:30;13.48;;;6.55;;
55368;SDS011;41247;49.736;8.752;2023-02-28T03:18:53;10.90;;;6.28;;
55368;SDS011;41247;49.736;8.752;2023-02-28T03:31:11;9.30;;;5.78;;
55368;SDS011;41247;49.736;8.752;2023-02-28T03:34:59;9.38;;;5.82;;
55368;SDS011;41247;49.736;8.752;2023-02-28T03:38:52;14.27;;;6.85;;
55368;SDS011;41247;49.736;8.752;2023-02-28T03:43:03;12.45;;;6.70;;
55368;SDS011;41247;49.736;8.752;2023-02-28T03:46:53;10.25;;;6.43;;
55368;SDS011;41247;49.736;8.752;2023-02-28T03:50:41;9.35;;;5.80;;
55368;SDS011;41247;49.736;8.752;2023-02-28T03:54:27;9.70;;;5.90;;
55368;SDS011;41247;49.736;8.752;2023-02-28T03:58:37;11.27;;;5.97;;
55368;SDS011;41247;49.736;8.752;2023-02-28T04:02:31;14.63;;;6.25;;
55368;SDS011;41247;49.736;8.752;2023-02-28T04:06:14;11.65;;;6.03;;
55368;SDS011;41247;49.736;8.752;2023-02-28T04:09:59;10.50;;;5.93;;
55368;SDS011;41247;49.736;8.752;2023-02-28T04:13:39;10.40;;;6.00;;
55368;SDS011;41247;49.736;8.752;2023-02-28T04:17:20;12.10;;;6.47;;
55368;SDS011;41247;49.736;8.752;2023-02-28T04:21:01;11.55;;;6.35;;
55368;SDS011;41247;49.736;8.752;2023-02-28T04:24:41;10.77;;;6.40;;
55368;SDS011;41247;49.736;8.752;2023-02-28T04:28:22;9.73;;;6.18;;
55368;SDS011;41247;49.736;8.752;2023-02-28T04:32:04;10.38;;;6.45;;
55368;SDS011;41247;49.736;8.752;2023-02-28T04:35:45;9.07;;;6.10;;
55368;SDS011;41247;49.736;8.752;2023-02-28T04:39:25;11.10;;;6.63;;
55368;SDS011;41247;49.736;8.752;2023-02-28T04:43:06;12.68;;;6.90;;
55368;SDS011;41247;49.736;8.752;2023-02-28T04:46:47;13.77;;;6.75;;
55368;SDS011;41247;49.736;8.752;2023-02-28T04:50:28;12.63;;;7.55;;
55368;SDS011;41247;49.736;8.752;2023-02-28T04:54:09;12.73;;;7.05;;
55368;SDS011;41247;49.736;8.752;2023-02-28T04:57:49;15.95;;;8.05;;
55368;SDS011;41247;49.736;8.752;2023-02-28T05:01:33;14.52;;;7.93;;
55368;SDS011;41247;49.736;8.752;2023-02-28T05:05:14;14.15;;;7.88;;
55368;SDS011;41247;49.736;8.752;2023-02-28T05:08:55;12.90;;;8.00;;
55368;SDS011;41247;49.736;8.752;2023-02-28T05:12:35;17.23;;;7.82;;
55368;SDS011;41247;49.736;8.752;2023-02-28T05:16:16;15.68;;;7.88;;
55368;SDS011;41247;49.736;8.752;2023-02-28T05:19:57;15.55;;;8.10;;
55368;SDS011;41247;49.736;8.752;2023-02-28T05:23:38;12.38;;;7.72;;
55368;SDS011;41247;49.736;8.752;2023-02-28T05:27:18;13.70;;;8.02;;
55368;SDS011;41247;49.736;8.752;2023-02-28T05:30:59;13.75;;;8.02;;
55368;SDS011;41247;49.736;8.752;2023-02-28T05:34:40;14.10;;;8.35;;
55368;SDS011;41247;49.736;8.752;2023-02-28T05:38:21;15.00;;;8.32;;
55368;SDS011;41247;49.736;8.752;2023-02-28T05:42:02;15.10;;;7.93;;
55368;SDS011;41247;49.736;8.752;2023-02-28T05:45:42;13.68;;;7.78;;
55368;SDS011;41247;49.736;8.752;2023-02-28T05:49:23;17.17;;;8.05;;
55368;SDS011;41247;49.736;8.752;2023-02-28T05:53:03;13.55;;;8.30;;
55368;SDS011;41247;49.736;8.752;2023-02-28T05:56:44;12.68;;;8.48;;
55368;SDS011;41247;49.736;8.752;2023-02-28T06:00:25;16.73;;;8.60;;
55368;SDS011;41247;49.736;8.752;2023-02-28T06:04:09;18.23;;;9.10;;
55368;SDS011;41247;49.736;8.752;2023-02-28T06:07:50;12.45;;;7.68;;
55368;SDS011;41247;49.736;8.752;2023-02-28T06:11:31;13.98;;;8.15;;
55368;SDS011;41247;49.736;8.752;2023-02-28T06:15:13;12.65;;;7.70;;
55368;SDS011;41247;49.736;8.752;2023-02-28T06:23:32;20.08;;;7.47;;
55368;SDS011;41247;49.736;8.752;2023-02-28T06:27:19;13.38;;;7.20;;
55368;SDS011;41247;49.736;8.752;2023-02-28T06:30:59;16.33;;;7.43;;
55368;SDS011;41247;49.736;8.752;2023-02-28T06:35:09;14.70;;;7.32;;
55368;SDS011;41247;49.736;8.752;2023-02-28T06:38:59;12.20;;;6.90;;
55368;SDS011;41247;49.736;8.752;2023-02-28T06:43:53;16.38;;;8.43;;
55368;SDS011;41247;49.736;8.752;2023-02-28T06:47:34;17.35;;;8.60;;
55368;SDS011;41247;49.736;8.752;2023-02-28T06:52:06;17.00;;;8.68;;
55368;SDS011;41247;49.736;8.752;2023-02-28T06:55:47;19.60;;;8.80;;
55368;SDS011;41247;49.736;8.752;2023-02-28T06:59:27;14.88;;;7.80;;
55368;SDS011;41247;49.736;8.752;2023-02-28T07:04:07;15.07;;;8.15;;
55368;SDS011;41247;49.736;8.752;2023-02-28T07:07:54;16.17;;;8.23;;
55368;SDS011;41247;49.736;8.752;2023-02-28T07:11:34;16.58;;;6.88;;
55368;SDS011;41247;49.736;8.752;2023-02-28T07:19:57;15.88;;;7.35;;
55368;SDS011;41247;49.736;8.752;2023-02-28T07:24:25;9.35;;;6.05;;
55368;SDS011;41247;49.736;8.752;2023-02-28T07:32:22;14.93;;;6.70;;
55368;SDS011;41247;49.736;8.752;2023-02-28T07:36:10;18.50;;;8.65;;
55368;SDS011;41247;49.736;8.752;2023-02-28T07:39:55;13.13;;;6.50;;
55368;SDS011;41247;49.736;8.752;2023-02-28T07:43:42;15.18;;;6.50;;
55368;SDS011;41247;49.736;8.752;2023-02-28T07:48:08;9.80;;;5.68;;
55368;SDS011;41247;49.736;8.752;2023-02-28T07:51:49;10.13;;;6.28;;
55368;SDS011;41247;49.736;8.752;2023-02-28T07:55:29;9.80;;;5.88;;
55368;SDS011;41247;49.736;8.752;2023-02-28T07:59:48;11.77;;;6.45;;
55368;SDS011;41247;49.736;8.752;2023-02-28T08:03:29;11.18;;;5.35;;
55368;SDS011;41247;49.736;8.752;2023-02-28T08:07:13;8.68;;;5.40;;
55368;SDS011;41247;49.736;8.752;2023-02-28T08:10:55;11.93;;;5.70;;
55368;SDS011;41247;49.736;8.752;2023-02-28T08:14:36;13.73;;;5.70;;
55368;SDS011;41247;49.736;8.752;2023-02-28T08:18:17;12.68;;;6.25;;
55368;SDS011;41247;49.736;8.752;2023-02-28T08:21:58;15.00;;;5.90;;
55368;SDS011;41247;49.736;8.752;2023-02-28T08:25:38;12.90;;;6.07;;
55368;SDS011;41247;49.736;8.752;2023-02-28T08:29:19;10.32;;;6.38;;
55368;SDS011;41247;49.736;8.752;2023-02-28T08:33:00;9.90;;;5.82;;
55368;SDS011;41247;49.736;8.752;2023-02-28T08:36:40;10.95;;;5.95;;
55368;SDS011;41247;49.736;8.752;2023-02-28T08:40:22;10.48;;;6.07;;
55368;SDS011;41247;49.736;8.752;2023-02-28T08:44:02;16.20;;;6.25;;
55368;SDS011;41247;49.736;8.752;2023-02-28T08:47:43;9.82;;;6.20;;
55368;SDS011;41247;49.736;8.752;2023-02-28T08:51:24;20.17;;;7.25;;
55368;SDS011;41247;49.736;8.752;2023-02-28T08:55:04;16.58;;;7.20;;
55368;SDS011;41247;49.736;8.752;2023-02-28T08:58:46;13.13;;;6.72;;
55368;SDS011;41247;49.736;8.752;2023-02-28T09:02:38;12.70;;;6.67;;
55368;SDS011;41247;49.736;8.752;2023-02-28T09:06:20;12.02;;;7.10;;
55368;SDS011;41247;49.736;8.752;2023-02-28T09:10:02;11.02;;;7.25;;
55368;SDS011;41247;49.736;8.752;2023-02-28T09:13:45;14.00;;;7.45;;
55368;SDS011;41247;49.736;8.752;2023-02-28T09:17:26;12.95;;;6.82;;
55368;SDS011;41247;49.736;8.752;2023-02-28T09:21:08;10.85;;;6.72;;
55368;SDS011;41247;49.736;8.752;2023-02-28T09:24:52;11.25;;;6.82;;
55368;SDS011;41247;49.736;8.752;2023-02-28T09:28:33;12.35;;;6.65;;
55368;SDS011;41247;49.736;8.752;2023-02-28T09:32:14;11.48;;;6.90;;
55368;SDS011;41247;49.736;8.752;2023-02-28T09:35:58;12.32;;;6.60;;
55368;SDS011;41247;49.736;8.752;2023-02-28T09:39:41;13.93;;;7.25;;
55368;SDS011;41247;49.736;8.752;2023-02-28T09:43:26;13.13;;;6.80;;
55368;SDS011;41247;49.736;8.752;2023-02-28T09:55:22;10.10;;;6.68;;
55368;SDS011;41247;49.736;8.752;2023-02-28T10:07:17;9.93;;;6.07;;
55368;SDS011;41247;49.736;8.752;2023-02-28T10:15:00;13.38;;;6.60;;
55368;SDS011;41247;49.736;8.752;2023-02-28T10:23:15;10.65;;;6.15;;
55368;SDS011;41247;49.736;8.752;2023-02-28T10:27:21;11.73;;;6.68;;
55368;SDS011;41247;49.736;8.752;2023-02-28T10:31:29;12.27;;;6.95;;
55368;SDS011;41247;49.736;8.752;2023-02-28T10:35:15;10.60;;;6.72;;
55368;SDS011;41247;49.736;8.752;2023-02-28T10:39:21;11.82;;;7.50;;
55368;SDS011;41247;49.736;8.752;2023-02-28T10:43:25;13.35;;;7.25;;
55368;SDS011;41247;49.736;8.752;2023-02-28T10:47:13;11.43;;;6.68;;
55368;SDS011;41247;49.736;8.752;2023-02-28T10:50:56;10.00;;;6.78;;
55368;SDS011;41247;49.736;8.752;2023-02-28T10:54:38;11.85;;;7.60;;
55368;SDS011;41247;49.736;8.752;2023-02-28T10:58:25;13.57;;;7.85;;
55368;SDS011;41247;49.736;8.752;2023-02-28T11:10:06;13.82;;;7.22;;
55368;SDS011;41247;49.736;8.752;2023-02-28T11:13:58;12.13;;;7.55;;
55368;SDS011;41247;49.736;8.752;2023-02-28T11:17:44;11.82;;;7.35;;
55368;SDS011;41247;49.736;8.752;2023-02-28T11:21:58;11.80;;;8.30;;
55368;SDS011;41247;49.736;8.752;2023-02-28T11:25:45;10.90;;;7.75;;
55368;SDS011;41247;49.736;8.752;2023-02-28T11:29:34;13.52;;;7.85;;
55368;SDS011;41247;49.736;8.752;2023-02-28T11:33:28;11.30;;;7.45;;
55368;SDS011;41247;49.736;8.752;2023-02-28T11:37:18;11.30;;;7.32;;
55368;SDS011;41247;49.736;8.752;2023-02-28T11:41:05;11.95;;;7.15;;
55368;SDS011;41247;49.736;8.752;2023-02-28T11:45:58;13.10;;;7.70;;
55368;SDS011;41247;49.736;8.752;2023-02-28T11:53:42;11.98;;;7.32;;
55368;SDS011;41247;49.736;8.752;2023-02-28T11:57:49;12.95;;;7.30;;
55368;SDS011;41247;49.736;8.752;2023-02-28T12:01:58;13.30;;;8.00;;
55368;SDS011;41247;49.736;8.752;2023-02-28T12:06:21;12.60;;;7.70;;
55368;SDS011;41247;49.736;8.752;2023-02-28T12:10:42;13.10;;;7.65;;
55368;SDS011;41247;49.736;8.752;2023-02-28T12:14:45;15.48;;;8.88;;
55368;SDS011;41247;49.736;8.752;2023-02-28T12:27:16;13.18;;;7.78;;
55368;SDS011;41247;49.736;8.752;2023-02-28T12:34:44;14.60;;;7.57;;
55368;SDS011;41247;49.736;8.752;2023-02-28T12:38:49;11.90;;;7.50;;
55368;SDS011;41247;49.736;8.752;2023-02-28T12:42:45;11.93;;;6.88;;
55368;SDS011;41247;49.736;8.752;2023-02-28T12:46:39;12.68;;;7.70;;
55368;SDS011;41247;49.736;8.752;2023-02-28T12:50:24;12.18;;;7.90;;
55368;SDS011;41247;49.736;8.752;2023-02-28T13:06:57;11.48;;;7.40;;
55368;SDS011;41247;49.736;8.752;2023-02-28T13:10:46;12.38;;;7.20;;
55368;SDS011;41247;49.736;8.752;2023-02-28T13:18:27;13.15;;;7.53;;
55368;SDS011;41247;49.736;8.752;2023-02-28T13:22:59;13.02;;;7.97;;
55368;SDS011;41247;49.736;8.752;2023-02-28T13:38:41;11.07;;;7.43;;
55368;SDS011;41247;49.736;8.752;2023-02-28T13:46:13;12.82;;;8.68;;
55368;SDS011;41247;49.736;8.752;2023-02-28T13:49:54;13.77;;;8.03;;
55368;SDS011;41247;49.736;8.752;2023-02-28T13:54:00;13.50;;;8.00;;
55368;SDS011;41247;49.736;8.752;2023-02-28T14:02:29;11.43;;;8.00;;
55368;SDS011;41247;49.736;8.752;2023-02-28T14:06:35;12.32;;;8.00;;
55368;SDS011;41247;49.736;8.752;2023-02-28T14:14:08;11.07;;;7.80;;
55368;SDS011;41247;49.736;8.752;2023-02-28T14:18:25;12.88;;;8.15;;
55368;SDS011;41247;49.736;8.752;2023-02-28T14:22:26;12.75;;;8.40;;
55368;SDS011;41247;49.736;8.752;2023-02-28T14:30:40;14.88;;;7.82;;
55368;SDS011;41247;49.736;8.752;2023-02-28T14:39:21;12.95;;;7.97;;
55368;SDS011;41247;49.736;8.752;2023-02-28T14:43:05;11.07;;;7.85;;
55368;SDS011;41247;49.736;8.752;2023-02-28T14:47:00;11.02;;;7.35;;
55368;SDS011;41247;49.736;8.752;2023-02-28T14:50:52;12.23;;;7.60;;
55368;SDS011;41247;49.736;8.752;2023-02-28T14:58:28;10.95;;;7.47;;
55368;SDS011;41247;49.736;8.752;2023-02-28T15:02:17;12.05;;;7.53;;
55368;SDS011;41247;49.736;8.752;2023-02-28T15:06:12;14.25;;;7.88;;
55368;SDS011;41247;49.736;8.752;2023-02-28T15:14:12;10.52;;;6.93;;
55368;SDS011;41247;49.736;8.752;2023-02-28T15:17:57;11.73;;;7.43;;
55368;SDS011;41247;49.736;8.752;2023-02-28T15:21:41;13.48;;;7.55;;
55368;SDS011;41247;49.736;8.752;2023-02-28T15:25:25;12.57;;;6.93;;
55368;SDS011;41247;49.736;8.752;2023-02-28T15:29:07;10.55;;;6.88;;
55368;SDS011;41247;49.736;8.752;2023-02-28T15:33:04;17.23;;;7.72;;
55368;SDS011;41247;49.736;8.752;2023-02-28T15:36:58;11.77;;;7.20;;
55368;SDS011;41247;49.736;8.752;2023-02-28T15:40:41;11.45;;;7.72;;
55368;SDS011;41247;49.736;8.752;2023-02-28T15:44:32;13.65;;;7.75;;
55368;SDS011;41247;49.736;8.752;2023-02-28T15:48:15;11.73;;;7.68;;
55368;SDS011;41247;49.736;8.752;2023-02-28T15:52:04;13.52;;;7.65;;
55368;SDS011;41247;49.736;8.752;2023-02-28T16:03:40;11.10;;;7.32;;
55368;SDS011;41247;49.736;8.752;2023-02-28T16:07:25;12.00;;;8.10;;
55368;SDS011;41247;49.736;8.752;2023-02-28T16:11:08;14.15;;;7.65;;
55368;SDS011;41247;49.736;8.752;2023-02-28T16:14:51;11.23;;;7.77;;
55368;SDS011;41247;49.736;8.752;2023-02-28T16:18:33;18.60;;;7.88;;
55368;SDS011;41247;49.736;8.752;2023-02-28T16:22:13;11.38;;;7.57;;
55368;SDS011;41247;49.736;8.752;2023-02-28T16:25:54;12.27;;;7.60;;
55368;SDS011;41247;49.736;8.752;2023-02-28T16:29:35;12.18;;;7.90;;
55368;SDS011;41247;49.736;8.752;2023-02-28T16:33:16;12.73;;;7.20;;
55368;SDS011;41247;49.736;8.752;2023-02-28T16:36:57;12.98;;;7.70;;
55368;SDS011;41247;49.736;8.752;2023-02-28T16:40:38;11.98;;;7.50;;
55368;SDS011;41247;49.736;8.752;2023-02-28T16:44:26;11.57;;;7.88;;
55368;SDS011;41247;49.736;8.752;2023-02-28T16:48:16;13.13;;;7.43;;
55368;SDS011;41247;49.736;8.752;2023-02-28T16:51:56;13.05;;;8.20;;
55368;SDS011;41247;49.736;8.752;2023-02-28T16:55:37;13.52;;;8.05;;
55368;SDS011;41247;49.736;8.752;2023-02-28T16:59:24;12.93;;;7.47;;
55368;SDS011;41247;49.736;8.752;2023-02-28T17:03:15;14.18;;;8.27;;
55368;SDS011;41247;49.736;8.752;2023-02-28T17:07:02;11.55;;;7.95;;
55368;SDS011;41247;49.736;8.752;2023-02-28T17:10:43;13.20;;;7.93;;
55368;SDS011;41247;49.736;8.752;2023-02-28T17:14:24;15.13;;;8.75;;
55368;SDS011;41247;49.736;8.752;2023-02-28T17:18:05;14.60;;;8.20;;
55368;SDS011;41247;49.736;8.752;2023-02-28T17:21:46;15.65;;;7.82;;
55368;SDS011;41247;49.736;8.752;2023-02-28T17:25:27;16.50;;;8.68;;
55368;SDS011;41247;49.736;8.752;2023-02-28T17:29:15;16.17;;;8.60;;
55368;SDS011;41247;49.736;8.752;2023-02-28T17:32:58;13.52;;;8.00;;
55368;SDS011;41247;49.736;8.752;2023-02-28T17:36:39;16.58;;;9.02;;
55368;SDS011;41247;49.736;8.752;2023-02-28T17:40:20;17.00;;;8.73;;
55368;SDS011;41247;49.736;8.752;2023-02-28T17:44:03;18.90;;;8.55;;
55368;SDS011;41247;49.736;8.752;2023-02-28T17:47:45;16.70;;;8.65;;
55368;SDS011;41247;49.736;8.752;2023-02-28T17:51:29;15.23;;;9.05;;
55368;SDS011;41247;49.736;8.752;2023-02-28T17:55:10;16.40;;;8.63;;
55368;SDS011;41247;49.736;8.752;2023-02-28T17:58:51;18.55;;;9.57;;
55368;SDS011;41247;49.736;8.752;2023-02-28T18:02:36;18.80;;;9.48;;
55368;SDS011;41247;49.736;8.752;2023-02-28T18:06:21;17.77;;;8.65;;
55368;SDS011;41247;49.736;8.752;2023-02-28T18:10:05;18.85;;;9.60;;
55368;SDS011;41247;49.736;8.752;2023-02-28T18:13:53;16.27;;;9.07;;
55368;SDS011;41247;49.736;8.752;2023-02-28T18:17:34;19.00;;;9.27;;
55368;SDS011;41247;49.736;8.752;2023-02-28T18:21:15;17.40;;;10.00;;
55368;SDS011;41247;49.736;8.752;2023-02-28T18:24:56;18.52;;;9.48;;
55368;SDS011;41247;49.736;8.752;2023-02-28T18:28:37;17.33;;;9.20;;
55368;SDS011;41247;49.736;8.752;2023-02-28T18:32:17;18.30;;;10.10;;
55368;SDS011;41247;49.736;8.752;2023-02-28T18:35:58;19.50;;;9.63;;
55368;SDS011;41247;49.736;8.752;2023-02-28T18:39:38;18.00;;;9.77;;
55368;SDS011;41247;49.736;8.752;2023-02-28T18:43:19;17.45;;;9.52;;
55368;SDS011;41247;49.736;8.752;2023-02-28T18:47:00;18.80;;;10.00;;
55368;SDS011;41247;49.736;8.752;2023-02-28T18:50:41;18.05;;;9.30;;
55368;SDS011;41247;49.736;8.752;2023-02-28T18:54:21;16.05;;;9.43;;
55368;SDS011;41247;49.736;8.752;2023-02-28T18:58:02;18.88;;;9.25;;
55368;SDS011;41247;49.736;8.752;2023-02-28T19:01:43;18.45;;;9.73;;
55368;SDS011;41247;49.736;8.752;2023-02-28T19:05:24;16.30;;;8.85;;
55368;SDS011;41247;49.736;8.752;2023-02-28T19:09:04;15.13;;;8.65;;
55368;SDS011;41247;49.736;8.752;2023-02-28T19:12:46;19.25;;;9.65;;
55368;SDS011;41247;49.736;8.752;2023-02-28T19:16:27;18.92;;;9.18;;
55368;SDS011;41247;49.736;8.752;2023-02-28T19:20:08;17.17;;;8.98;;
55368;SDS011;41247;49.736;8.752;2023-02-28T19:23:49;20.13;;;10.50;;
55368;SDS011;41247;49.736;8.752;2023-02-28T19:27:30;17.45;;;9.40;;
55368;SDS011;41247;49.736;8.752;2023-02-28T19:31:12;17.70;;;9.73;;
55368;SDS011;41247;49.736;8.752;2023-02-28T19:35:02;21.58;;;9.80;;
55368;SDS011;41247;49.736;8.752;2023-02-28T19:38:42;20.15;;;9.65;;
55368;SDS011;41247;49.736;8.752;2023-02-28T19:42:24;23.30;;;10.27;;
55368;SDS011;41247;49.736;8.752;2023-02-28T19:46:05;18.33;;;9.63;;
55368;SDS011;41247;49.736;8.752;2023-02-28T19:49:46;22.38;;;10.10;;
55368;SDS011;41247;49.736;8.752;2023-02-28T19:53:31;24.17;;;10.70;;
55368;SDS011;41247;49.736;8.752;2023-02-28T19:57:14;24.27;;;11.35;;
55368;SDS011;41247;49.736;8.752;2023-02-28T20:00:54;22.58;;;10.63;;
55368;SDS011;41247;49.736;8.752;2023-02-28T20:04:35;25.33;;;10.68;;
55368;SDS011;41247;49.736;8.752;2023-02-28T20:08:16;21.35;;;11.45;;
55368;SDS011;41247;49.736;8.752;2023-02-28T20:11:56;27.83;;;12.13;;
55368;SDS011;41247;49.736;8.752;2023-02-28T20:15:37;25.77;;;11.57;;
55368;SDS011;41247;49.736;8.752;2023-02-28T20:19:18;19.88;;;11.25;;
55368;SDS011;41247;49.736;8.752;2023-02-28T20:22:58;23.17;;;11.93;;
55368;SDS011;41247;49.736;8.752;2023-02-28T20:26:39;29.98;;;13.70;;
55368;SDS011;41247;49.736;8.752;2023-02-28T20:30:20;27.05;;;12.13;;
55368;SDS011;41247;49.736;8.752;2023-02-28T20:34:00;25.48;;;12.13;;
55368;SDS011;41247;49.736;8.752;2023-02-28T20:37:41;26.88;;;13.07;;
55368;SDS011;41247;49.736;8.752;2023-02-28T20:41:21;29.70;;;12.98;;
55368;SDS011;41247;49.736;8.752;2023-02-28T20:45:02;28.58;;;13.10;;
55368;SDS011;41247;49.736;8.752;2023-02-28T20:48:43;26.98;;;12.27;;
55368;SDS011;41247;49.736;8.752;2023-02-28T20:52:24;25.33;;;12.18;;
55368;SDS011;41247;49.736;8.752;2023-02-28T20:56:06;25.50;;;12.40;;
55368;SDS011;41247;49.736;8.752;2023-02-28T20:59:52;28.50;;;12.73;;
55368;SDS011;41247;49.736;8.752;2023-02-28T21:03:33;29.73;;;13.82;;
55368;SDS011;41247;49.736;8.752;2023-02-28T21:07:14;32.30;;;14.02;;
55368;SDS011;41247;49.736;8.752;2023-02-28T21:10:54;25.65;;;13.48;;
55368;SDS011;41247;49.736;8.752;2023-02-28T21:14:35;28.90;;;13.63;;
55368;SDS011;41247;49.736;8.752;2023-02-28T21:18:15;30.80;;;13.73;;
55368;SDS011;41247;49.736;8.752;2023-02-28T21:21:56;29.58;;;14.77;;
55368;SDS011;41247;49.736;8.752;2023-02-28T21:25:37;29.50;;;13.73;;
55368;SDS011;41247;49.736;8.752;2023-02-28T21:29:17;23.85;;;13.68;;
55368;SDS011;41247;49.736;8.752;2023-02-28T21:32:58;30.90;;;15.23;;
55368;SDS011;41247;49.736;8.752;2023-02-28T21:36:40;29.42;;;14.68;;
55368;SDS011;41247;49.736;8.752;2023-02-28T21:40:22;35.78;;;15.75;;
55368;SDS011;41247;49.736;8.752;2023-02-28T21:44:03;30.90;;;15.18;;
55368;SDS011;41247;49.736;8.752;2023-02-28T21:47:43;31.65;;;15.40;;
55368;SDS011;41247;49.736;8.752;2023-02-28T21:51:26;30.95;;;14.57;;
55368;SDS011;41247;49.736;8.752;2023-02-28T21:55:09;30.10;;;15.48;;
55368;SDS011;41247;49.736;8.752;2023-02-28T21:58:50;31.00;;;15.65;;
55368;SDS011;41247;49.736;8.752;2023-02-28T22:02:31;31.63;;;15.23;;
55368;SDS011;41247;49.736;8.752;2023-02-28T22:06:18;34.03;;;15.43;;
55368;SDS011;41247;49.736;8.752;2023-02-28T22:10:05;33.15;;;15.88;;
55368;SDS011;41247;49.736;8.752;2023-02-28T22:13:47;35.60;;;15.30;;
55368;SDS011;41247;49.736;8.752;2023-02-28T22:17:32;32.92;;;15.68;;
55368;SDS011;41247;49.736;8.752;2023-02-28T22:21:13;29.75;;;14.65;;
55368;SDS011;41247;49.736;8.752;2023-02-28T22:24:55;28.48;;;14.30;;
55368;SDS011;41247;49.736;8.752;2023-02-28T22:28:36;29.30;;;14.70;;
55368;SDS011;41247;49.736;8.752;2023-02-28T22:32:17;33.30;;;15.23;;
55368;SDS011;41247;49.736;8.752;2023-02-28T22:35:58;30.60;;;14.75;;
55368;SDS011;41247;49.736;8.752;2023-02-28T22:39:45;32.08;;;14.95;;
55368;SDS011;41247;49.736;8.752;2023-02-28T22:43:26;28.73;;;15.35;;
55368;SDS011;41247;49.736;8.752;2023-02-28T22:47:07;29.13;;;15.18;;
55368;SDS011;41247;49.736;8.752;2023-02-28T22:50:47;31.48;;;15.25;;
55368;SDS011;41247;49.736;8.752;2023-02-28T22:54:28;32.15;;;14.15;;
55368;SDS011;41247;49.736;8.752;2023-02-28T22:58:08;33.63;;;15.27;;
55368;SDS011;41247;49.736;8.752;2023-02-28T23:01:49;28.55;;;13.93;;
55368;SDS011;41247;49.736;8.752;2023-02-28T23:05:30;27.40;;;13.50;;
55368;SDS011;41247;49.736;8.752;2023-02-28T23:09:11;32.40;;;14.10;;
55368;SDS011;41247;49.736;8.752;2023-02-28T23:12:55;30.05;;;14.35;;
55368;SDS011;41247;49.736;8.752;2023-02-28T23:20:27;31.27;;;14.70;;
55368;SDS011;41247;49.736;8.752;2023-02-28T23:24:09;32.45;;;15.80;;
55368;SDS011;41247;49.736;8.752;2023-02-28T23:27:53;36.90;;;17.42;;
55368;SDS011;41247;49.736;8.752;2023-02-28T23:31:33;32.95;;;14.52;;
55368;SDS011;41247;49.736;8.752;2023-02-28T23:35:14;32.85;;;15.85;;
55368;SDS011;41247;49.736;8.752;2023-02-28T23:38:55;30.42;;;14.65;;
55368;SDS011;41247;49.736;8.752;2023-02-28T23:42:35;31.70;;;15.10;;
55368;SDS011;41247;49.736;8.752;2023-02-28T23:46:16;34.78;;;16.13;;
55368;SDS011;41247;49.736;8.752;2023-02-28T23:49:58;32.78;;;15.50;;
55368;SDS011;41247;49.736;8.752;2023-02-28T23:53:40;40.65;;;16.52;;
55368;SDS011;41247;49.736;8.752;2023-02-28T23:57:24;34.35;;;16.20;;
